sensor_id;sensor_type;location;lat;lon;timestamp;pressure;altitude;pressure_sealevel;temperature;humidity
80321;BME280;69633;47.066;15.450;2024-03-08T00:00:12;97889.44;;;5.86;76.47
80321;BME280;69633;47.066;15.450;2024-03-08T00:02:39;97908.69;;;5.68;77.00
80321;BME280;69633;47.066;15.450;2024-03-08T00:05:05;97890.06;;;5.78;77.29
80321;BME280;69633;47.066;15.450;2024-03-08T00:07:31;97895.84;;;5.80;77.45
80321;BME280;69633;47.066;15.450;2024-03-08T00:09:56;97900.50;;;5.69;77.20
80321;BME280;69633;47.066;15.450;2024-03-08T00:12:22;97889.25;;;5.64;77.36
80321;BME280;69633;47.066;15.450;2024-03-08T00:14:49;97906.09;;;5.63;77.14
80321;BME280;69633;47.066;15.450;2024-03-08T00:17:16;97898.00;;;5.59;77.62
80321;BME280;69633;47.066;15.450;2024-03-08T00:19:41;97905.69;;;5.56;77.91
80321;BME280;69633;47.066;15.450;2024-03-08T00:22:07;97908.56;;;5.41;78.32
80321;BME280;69633;47.066;15.450;2024-03-08T00:24:33;97899.19;;;5.34;78.33
80321;BME280;69633;47.066;15.450;2024-03-08T00:26:59;97907.13;;;5.29;79.03
80321;BME280;69633;47.066;15.450;2024-03-08T00:29:26;97909.63;;;5.21;78.85
80321;BME280;69633;47.066;15.450;2024-03-08T00:31:52;97902.16;;;5.09;79.44
80321;BME280;69633;47.066;15.450;2024-03-08T00:34:18;97897.03;;;4.99;79.94
80321;BME280;69633;47.066;15.450;2024-03-08T00:36:43;97894.53;;;4.89;80.06
80321;BME280;69633;47.066;15.450;2024-03-08T00:39:10;97897.66;;;4.91;80.05
80321;BME280;69633;47.066;15.450;2024-03-08T00:41:37;97889.22;;;4.94;80.30
80321;BME280;69633;47.066;15.450;2024-03-08T00:44:02;97896.94;;;4.85;80.63
80321;BME280;69633;47.066;15.450;2024-03-08T00:46:29;97895.09;;;4.86;80.73
80321;BME280;69633;47.066;15.450;2024-03-08T00:48:56;97891.94;;;4.84;80.72
80321;BME280;69633;47.066;15.450;2024-03-08T00:51:23;97880.94;;;4.82;80.67
80321;BME280;69633;47.066;15.450;2024-03-08T00:53:48;97888.25;;;4.85;80.30
80321;BME280;69633;47.066;15.450;2024-03-08T00:56:14;97882.94;;;4.90;80.78
80321;BME280;69633;47.066;15.450;2024-03-08T00:58:39;97880.91;;;4.87;80.88
80321;BME280;69633;47.066;15.450;2024-03-08T01:01:06;97873.06;;;4.82;80.65
80321;BME280;69633;47.066;15.450;2024-03-08T01:03:32;97877.81;;;4.80;80.24
80321;BME280;69633;47.066;15.450;2024-03-08T01:05:57;97882.53;;;4.83;80.54
80321;BME280;69633;47.066;15.450;2024-03-08T01:08:26;97886.41;;;4.85;80.80
80321;BME280;69633;47.066;15.450;2024-03-08T01:10:53;97879.69;;;4.98;80.51
80321;BME280;69633;47.066;15.450;2024-03-08T01:13:20;97877.56;;;5.00;79.88
80321;BME280;69633;47.066;15.450;2024-03-08T01:15:46;97877.91;;;4.94;80.26
80321;BME280;69633;47.066;15.450;2024-03-08T01:18:11;97872.44;;;4.90;80.13
80321;BME280;69633;47.066;15.450;2024-03-08T01:20:37;97874.00;;;4.91;80.24
80321;BME280;69633;47.066;15.450;2024-03-08T01:23:03;97867.22;;;4.85;79.72
80321;BME280;69633;47.066;15.450;2024-03-08T01:25:33;97868.41;;;4.74;80.10
80321;BME280;69633;47.066;15.450;2024-03-08T01:27:58;97868.00;;;4.67;79.93
80321;BME280;69633;47.066;15.450;2024-03-08T01:30:23;97864.63;;;4.61;79.95
80321;BME280;69633;47.066;15.450;2024-03-08T01:32:50;97868.66;;;4.54;79.95
80321;BME280;69633;47.066;15.450;2024-03-08T01:35:16;97867.56;;;4.60;79.80
80321;BME280;69633;47.066;15.450;2024-03-08T01:37:41;97864.41;;;4.58;79.88
80321;BME280;69633;47.066;15.450;2024-03-08T01:40:08;97860.16;;;4.62;79.45
80321;BME280;69633;47.066;15.450;2024-03-08T01:42:34;97856.03;;;4.56;80.15
80321;BME280;69633;47.066;15.450;2024-03-08T01:45:05;97859.72;;;4.55;80.23
80321;BME280;69633;47.066;15.450;2024-03-08T01:47:31;97848.41;;;4.54;79.99
80321;BME280;69633;47.066;15.450;2024-03-08T01:49:59;97854.03;;;4.48;80.06
80321;BME280;69633;47.066;15.450;2024-03-08T01:52:28;97854.03;;;4.48;80.28
80321;BME280;69633;47.066;15.450;2024-03-08T01:54:55;97847.75;;;4.44;80.15
80321;BME280;69633;47.066;15.450;2024-03-08T01:57:21;97862.75;;;4.43;80.48
80321;BME280;69633;47.066;15.450;2024-03-08T01:59:49;97854.38;;;4.41;80.63
80321;BME280;69633;47.066;15.450;2024-03-08T02:02:17;97858.78;;;4.46;80.78
80321;BME280;69633;47.066;15.450;2024-03-08T02:04:44;97851.84;;;4.55;80.22
80321;BME280;69633;47.066;15.450;2024-03-08T02:07:10;97856.25;;;4.59;79.89
80321;BME280;69633;47.066;15.450;2024-03-08T02:09:35;97848.16;;;4.56;79.67
80321;BME280;69633;47.066;15.450;2024-03-08T02:12:01;97855.47;;;4.59;79.53
80321;BME280;69633;47.066;15.450;2024-03-08T02:14:27;97853.44;;;4.74;79.32
80321;BME280;69633;47.066;15.450;2024-03-08T02:16:53;97857.75;;;4.84;78.71
80321;BME280;69633;47.066;15.450;2024-03-08T02:19:21;97854.22;;;4.75;78.55
80321;BME280;69633;47.066;15.450;2024-03-08T02:21:46;97854.63;;;4.63;79.29
80321;BME280;69633;47.066;15.450;2024-03-08T02:24:13;97856.25;;;4.59;79.18
80321;BME280;69633;47.066;15.450;2024-03-08T02:26:38;97852.34;;;4.57;79.51
80321;BME280;69633;47.066;15.450;2024-03-08T02:29:04;97854.47;;;4.55;79.27
80321;BME280;69633;47.066;15.450;2024-03-08T02:31:30;97855.47;;;4.59;79.28
80321;BME280;69633;47.066;15.450;2024-03-08T02:33:56;97855.81;;;4.52;79.52
80321;BME280;69633;47.066;15.450;2024-03-08T02:36:21;97850.16;;;4.64;79.39
80321;BME280;69633;47.066;15.450;2024-03-08T02:38:49;97858.44;;;4.76;78.76
80321;BME280;69633;47.066;15.450;2024-03-08T02:41:14;97858.72;;;4.93;78.63
80321;BME280;69633;47.066;15.450;2024-03-08T02:43:40;97853.41;;;4.98;78.01
80321;BME280;69633;47.066;15.450;2024-03-08T02:46:05;97858.84;;;4.83;78.88
80321;BME280;69633;47.066;15.450;2024-03-08T02:48:31;97858.91;;;4.78;79.17
80321;BME280;69633;47.066;15.450;2024-03-08T02:50:56;97857.75;;;4.84;79.05
80321;BME280;69633;47.066;15.450;2024-03-08T02:53:22;97851.19;;;4.86;78.76
80321;BME280;69633;47.066;15.450;2024-03-08T02:55:49;97863.50;;;4.91;78.81
80321;BME280;69633;47.066;15.450;2024-03-08T02:58:16;97864.25;;;4.92;78.34
80321;BME280;69633;47.066;15.450;2024-03-08T03:00:42;97853.88;;;4.81;78.49
80321;BME280;69633;47.066;15.450;2024-03-08T03:03:09;97855.91;;;4.66;79.41
80321;BME280;69633;47.066;15.450;2024-03-08T03:05:34;97854.00;;;4.71;79.72
80321;BME280;69633;47.066;15.450;2024-03-08T03:08:00;97847.91;;;4.76;79.43
80321;BME280;69633;47.066;15.450;2024-03-08T03:10:26;97850.06;;;4.69;79.99
80321;BME280;69633;47.066;15.450;2024-03-08T03:12:51;97854.22;;;4.75;79.56
80321;BME280;69633;47.066;15.450;2024-03-08T03:15:18;97849.88;;;4.84;79.62
80321;BME280;69633;47.066;15.450;2024-03-08T03:17:48;97844.19;;;4.77;79.65
80321;BME280;69633;47.066;15.450;2024-03-08T03:20:14;97845.81;;;4.73;79.77
80321;BME280;69633;47.066;15.450;2024-03-08T03:22:40;97843.13;;;4.78;79.83
80321;BME280;69633;47.066;15.450;2024-03-08T03:25:08;97841.56;;;4.77;79.92
80321;BME280;69633;47.066;15.450;2024-03-08T03:27:34;97846.25;;;4.80;79.11
80321;BME280;69633;47.066;15.450;2024-03-08T03:30:01;97842.56;;;4.81;79.39
80321;BME280;69633;47.066;15.450;2024-03-08T03:32:48;97843.56;;;4.85;78.95
80321;BME280;69633;47.066;15.450;2024-03-08T03:35:19;97842.56;;;4.81;79.70
80321;BME280;69633;47.066;15.450;2024-03-08T03:37:48;97843.56;;;4.85;79.12
80321;BME280;69633;47.066;15.450;2024-03-08T03:40:36;97839.94;;;4.81;79.08
80321;BME280;69633;47.066;15.450;2024-03-08T03:43:02;97850.53;;;4.76;79.78
80321;BME280;69633;47.066;15.450;2024-03-08T03:45:29;97843.91;;;4.78;79.45
80321;BME280;69633;47.066;15.450;2024-03-08T03:47:54;97843.28;;;4.86;79.52
80321;BME280;69633;47.066;15.450;2024-03-08T03:50:21;97842.44;;;4.91;79.27
80321;BME280;69633;47.066;15.450;2024-03-08T03:52:47;97844.00;;;4.92;79.80
80321;BME280;69633;47.066;15.450;2024-03-08T03:55:13;97841.09;;;4.94;79.41
80321;BME280;69633;47.066;15.450;2024-03-08T03:57:40;97843.00;;;4.88;79.60
80321;BME280;69633;47.066;15.450;2024-03-08T04:00:07;97846.72;;;4.87;79.56
80321;BME280;69633;47.066;15.450;2024-03-08T04:02:39;97846.19;;;4.85;79.64
80321;BME280;69633;47.066;15.450;2024-03-08T04:05:08;97846.34;;;4.75;79.85
80321;BME280;69633;47.066;15.450;2024-03-08T04:07:35;97841.13;;;4.70;80.13
80321;BME280;69633;47.066;15.450;2024-03-08T04:10:05;97848.97;;;4.75;79.72
80321;BME280;69633;47.066;15.450;2024-03-08T04:12:58;97843.69;;;4.75;79.31
80321;BME280;69633;47.066;15.450;2024-03-08T04:15:44;97850.75;;;4.79;79.42
80321;BME280;69633;47.066;15.450;2024-03-08T04:18:11;97855.72;;;4.81;78.92
80321;BME280;69633;47.066;15.450;2024-03-08T04:20:39;97842.56;;;4.81;78.90
80321;BME280;69633;47.066;15.450;2024-03-08T04:23:05;97850.53;;;4.76;79.11
80321;BME280;69633;47.066;15.450;2024-03-08T04:25:32;97852.06;;;4.77;79.17
80321;BME280;69633;47.066;15.450;2024-03-08T04:28:00;97847.97;;;4.71;79.58
80321;BME280;69633;47.066;15.450;2024-03-08T04:30:27;97854.94;;;4.80;79.38
80321;BME280;69633;47.066;15.450;2024-03-08T04:32:54;97853.59;;;4.83;79.12
80321;BME280;69633;47.066;15.450;2024-03-08T04:35:19;97846.38;;;4.70;79.14
80321;BME280;69633;47.066;15.450;2024-03-08T04:37:47;97851.91;;;4.50;79.93
80321;BME280;69633;47.066;15.450;2024-03-08T04:40:12;97857.09;;;4.55;79.92
80321;BME280;69633;47.066;15.450;2024-03-08T04:42:39;97855.91;;;4.66;79.50
80321;BME280;69633;47.066;15.450;2024-03-08T04:45:08;97858.47;;;4.71;79.20
80321;BME280;69633;47.066;15.450;2024-03-08T04:47:35;97858.91;;;4.78;78.53
80321;BME280;69633;47.066;15.450;2024-03-08T04:50:02;97857.72;;;4.89;78.48
80321;BME280;69633;47.066;15.450;2024-03-08T04:52:27;97853.03;;;4.86;78.92
80321;BME280;69633;47.066;15.450;2024-03-08T04:54:53;97849.88;;;4.84;78.90
80321;BME280;69633;47.066;15.450;2024-03-08T04:57:20;97848.25;;;4.88;78.76
80321;BME280;69633;47.066;15.450;2024-03-08T04:59:45;97853.94;;;4.95;78.70
80321;BME280;69633;47.066;15.450;2024-03-08T05:02:11;97846.56;;;4.97;78.13
80321;BME280;69633;47.066;15.450;2024-03-08T05:04:37;97851.81;;;4.97;78.36
80321;BME280;69633;47.066;15.450;2024-03-08T05:07:02;97848.13;;;4.98;78.42
80321;BME280;69633;47.066;15.450;2024-03-08T05:09:28;97848.34;;;5.02;78.35
80321;BME280;69633;47.066;15.450;2024-03-08T05:11:54;97853.25;;;5.08;77.98
80321;BME280;69633;47.066;15.450;2024-03-08T05:14:21;97851.31;;;5.14;77.92
80321;BME280;69633;47.066;15.450;2024-03-08T05:16:46;97849.97;;;5.16;77.73
80321;BME280;69633;47.066;15.450;2024-03-08T05:19:18;97857.78;;;5.21;77.47
80321;BME280;69633;47.066;15.450;2024-03-08T05:21:45;97852.66;;;5.11;77.96
80321;BME280;69633;47.066;15.450;2024-03-08T05:24:11;97856.16;;;5.07;77.99
80321;BME280;69633;47.066;15.450;2024-03-08T05:26:38;97860.34;;;5.08;78.21
80321;BME280;69633;47.066;15.450;2024-03-08T05:29:07;97862.19;;;5.07;77.92
80321;BME280;69633;47.066;15.450;2024-03-08T05:34:12;97862.06;;;5.17;77.48
80321;BME280;69633;47.066;15.450;2024-03-08T05:36:41;97852.97;;;5.10;78.08
80321;BME280;69633;47.066;15.450;2024-03-08T05:39:11;97857.88;;;5.16;78.26
80321;BME280;69633;47.066;15.450;2024-03-08T05:41:38;97855.88;;;5.08;78.12
80321;BME280;69633;47.066;15.450;2024-03-08T05:44:04;97861.28;;;4.98;78.07
80321;BME280;69633;47.066;15.450;2024-03-08T05:46:29;97865.47;;;4.99;78.40
80321;BME280;69633;47.066;15.450;2024-03-08T05:48:55;97863.72;;;5.13;77.63
80321;BME280;69633;47.066;15.450;2024-03-08T05:51:20;97862.28;;;5.21;76.91
80321;BME280;69633;47.066;15.450;2024-03-08T05:53:47;97865.34;;;5.09;77.24
80321;BME280;69633;47.066;15.450;2024-03-08T05:56:12;97868.09;;;5.18;77.05
80321;BME280;69633;47.066;15.450;2024-03-08T05:58:37;97868.31;;;5.21;77.49
80321;BME280;69633;47.066;15.450;2024-03-08T06:01:04;97863.97;;;5.30;76.92
80321;BME280;69633;47.066;15.450;2024-03-08T06:03:33;97861.19;;;5.41;76.71
80321;BME280;69633;47.066;15.450;2024-03-08T06:05:59;97866.03;;;5.33;76.62
80321;BME280;69633;47.066;15.450;2024-03-08T06:08:25;97857.53;;;5.55;76.14
80321;BME280;69633;47.066;15.450;2024-03-08T06:10:55;97863.38;;;5.52;75.36
80321;BME280;69633;47.066;15.450;2024-03-08T06:13:22;97860.66;;;5.57;75.67
80321;BME280;69633;47.066;15.450;2024-03-08T06:15:47;97861.50;;;5.20;77.22
80321;BME280;69633;47.066;15.450;2024-03-08T06:18:13;97872.66;;;4.94;78.14
80321;BME280;69633;47.066;15.450;2024-03-08T06:20:40;97874.50;;;4.93;78.11
80321;BME280;69633;47.066;15.450;2024-03-08T06:23:09;97873.94;;;5.15;78.07
80321;BME280;69633;47.066;15.450;2024-03-08T06:25:34;97876.06;;;5.31;77.14
80321;BME280;69633;47.066;15.450;2024-03-08T06:28:06;97871.66;;;5.27;76.62
80321;BME280;69633;47.066;15.450;2024-03-08T06:30:31;97871.59;;;5.32;76.92
80321;BME280;69633;47.066;15.450;2024-03-08T06:32:57;97871.03;;;5.16;77.04
80321;BME280;69633;47.066;15.450;2024-03-08T06:35:22;97872.03;;;5.20;77.21
80321;BME280;69633;47.066;15.450;2024-03-08T06:37:48;97878.28;;;5.24;76.35
80321;BME280;69633;47.066;15.450;2024-03-08T06:40:13;97882.44;;;5.25;76.60
80321;BME280;69633;47.066;15.450;2024-03-08T06:42:40;97883.31;;;5.02;76.59
80321;BME280;69633;47.066;15.450;2024-03-08T06:45:08;97881.31;;;4.75;77.81
80321;BME280;69633;47.066;15.450;2024-03-08T06:47:36;97877.59;;;4.76;78.10
80321;BME280;69633;47.066;15.450;2024-03-08T06:50:02;97889.84;;;4.86;78.11
80321;BME280;69633;47.066;15.450;2024-03-08T06:52:27;97882.13;;;5.13;77.35
80321;BME280;69633;47.066;15.450;2024-03-08T06:54:53;97890.34;;;5.25;76.71
80321;BME280;69633;47.066;15.450;2024-03-08T06:57:19;97880.34;;;5.09;77.08
80321;BME280;69633;47.066;15.450;2024-03-08T06:59:54;97886.94;;;5.06;76.66
80321;BME280;69633;47.066;15.450;2024-03-08T07:02:22;97887.88;;;5.15;77.00
80321;BME280;69633;47.066;15.450;2024-03-08T07:04:50;97887.44;;;5.27;76.12
80321;BME280;69633;47.066;15.450;2024-03-08T07:07:16;97889.28;;;5.45;75.81
80321;BME280;69633;47.066;15.450;2024-03-08T07:09:46;97889.84;;;5.61;75.37
80321;BME280;69633;47.066;15.450;2024-03-08T07:12:11;97887.59;;;5.68;75.01
80321;BME280;69633;47.066;15.450;2024-03-08T07:14:40;97887.44;;;5.78;73.96
80321;BME280;69633;47.066;15.450;2024-03-08T07:17:07;97881.19;;;5.74;74.42
80321;BME280;69633;47.066;15.450;2024-03-08T07:19:37;97875.22;;;5.87;74.01
80321;BME280;69633;47.066;15.450;2024-03-08T07:22:05;97883.94;;;6.01;74.10
80321;BME280;69633;47.066;15.450;2024-03-08T07:24:35;97889.78;;;5.98;73.13
80321;BME280;69633;47.066;15.450;2024-03-08T07:27:20;97886.09;;;6.26;72.67
80321;BME280;69633;47.066;15.450;2024-03-08T07:29:45;97880.75;;;6.45;71.92
80321;BME280;69633;47.066;15.450;2024-03-08T07:32:11;97880.16;;;6.75;71.02
80321;BME280;69633;47.066;15.450;2024-03-08T07:34:49;97878.69;;;6.83;70.88
80321;BME280;69633;47.066;15.450;2024-03-08T07:37:16;97883.28;;;6.77;70.50
80321;BME280;69633;47.066;15.450;2024-03-08T07:39:42;97888.16;;;6.84;71.30
80321;BME280;69633;47.066;15.450;2024-03-08T07:42:08;97879.56;;;6.92;71.40
80321;BME280;69633;47.066;15.450;2024-03-08T07:44:35;97887.38;;;6.97;70.81
80321;BME280;69633;47.066;15.450;2024-03-08T07:47:00;97886.59;;;6.83;71.72
80321;BME280;69633;47.066;15.450;2024-03-08T07:49:26;97892.28;;;6.63;72.26
80321;BME280;69633;47.066;15.450;2024-03-08T07:51:51;97898.13;;;6.60;72.23
80321;BME280;69633;47.066;15.450;2024-03-08T07:54:18;97899.31;;;6.54;72.40
80321;BME280;69633;47.066;15.450;2024-03-08T07:56:43;97897.16;;;6.69;72.32
80321;BME280;69633;47.066;15.450;2024-03-08T07:59:10;97895.38;;;6.38;72.89
80321;BME280;69633;47.066;15.450;2024-03-08T08:01:37;97890.50;;;6.31;72.69
80321;BME280;69633;47.066;15.450;2024-03-08T08:04:04;97897.53;;;6.36;72.35
80321;BME280;69633;47.066;15.450;2024-03-08T08:06:30;97892.28;;;6.36;72.16
80321;BME280;69633;47.066;15.450;2024-03-08T08:08:59;97905.94;;;6.24;72.78
80321;BME280;69633;47.066;15.450;2024-03-08T08:11:26;97903.59;;;6.36;72.68
80321;BME280;69633;47.066;15.450;2024-03-08T08:13:54;97895.22;;;6.48;71.96
80321;BME280;69633;47.066;15.450;2024-03-08T08:16:23;97898.53;;;6.40;72.44
80321;BME280;69633;47.066;15.450;2024-03-08T08:18:50;97900.47;;;6.34;72.18
80321;BME280;69633;47.066;15.450;2024-03-08T08:21:17;97896.56;;;6.45;72.66
80321;BME280;69633;47.066;15.450;2024-03-08T08:23:43;97896.88;;;6.71;71.47
80321;BME280;69633;47.066;15.450;2024-03-08T08:26:11;97898.53;;;6.53;71.54
80321;BME280;69633;47.066;15.450;2024-03-08T08:28:36;97904.06;;;6.11;73.51
80321;BME280;69633;47.066;15.450;2024-03-08T08:31:02;97902.41;;;6.28;73.12
80321;BME280;69633;47.066;15.450;2024-03-08T08:33:29;97891.28;;;6.72;72.29
80321;BME280;69633;47.066;15.450;2024-03-08T08:35:55;97903.72;;;6.86;70.73
80321;BME280;69633;47.066;15.450;2024-03-08T08:38:21;97896.75;;;7.03;70.82
80321;BME280;69633;47.066;15.450;2024-03-08T08:40:48;97894.31;;;6.93;70.38
80321;BME280;69633;47.066;15.450;2024-03-08T08:43:14;97898.44;;;6.58;71.58
80321;BME280;69633;47.066;15.450;2024-03-08T08:45:41;97891.78;;;6.61;71.47
80321;BME280;69633;47.066;15.450;2024-03-08T08:48:08;97895.72;;;6.63;71.43
80321;BME280;69633;47.066;15.450;2024-03-08T08:50:35;97897.06;;;6.61;71.83
80321;BME280;69633;47.066;15.450;2024-03-08T08:53:02;97897.34;;;6.73;72.14
80321;BME280;69633;47.066;15.450;2024-03-08T08:55:28;97895.91;;;6.67;71.41
80321;BME280;69633;47.066;15.450;2024-03-08T08:57:54;97891.50;;;6.62;71.91
80321;BME280;69633;47.066;15.450;2024-03-08T09:00:21;97896.34;;;6.82;71.58
80321;BME280;69633;47.066;15.450;2024-03-08T09:02:50;97892.75;;;6.92;70.61
80321;BME280;69633;47.066;15.450;2024-03-08T09:05:16;97897.53;;;7.04;70.98
80321;BME280;69633;47.066;15.450;2024-03-08T09:07:43;97890.13;;;7.28;68.79
80321;BME280;69633;47.066;15.450;2024-03-08T09:10:11;97887.56;;;7.01;68.83
80321;BME280;69633;47.066;15.450;2024-03-08T09:12:38;97894.38;;;7.02;68.96
80321;BME280;69633;47.066;15.450;2024-03-08T09:15:05;97886.41;;;6.93;68.79
80321;BME280;69633;47.066;15.450;2024-03-08T09:17:33;97889.28;;;7.05;69.24
80321;BME280;69633;47.066;15.450;2024-03-08T09:19:59;97889.47;;;7.22;69.30
80321;BME280;69633;47.066;15.450;2024-03-08T09:22:25;97881.81;;;7.35;68.07
80321;BME280;69633;47.066;15.450;2024-03-08T09:24:51;97887.75;;;7.40;68.15
80321;BME280;69633;47.066;15.450;2024-03-08T09:27:17;97884.31;;;7.40;67.40
80321;BME280;69633;47.066;15.450;2024-03-08T09:29:44;97883.22;;;7.18;67.42
80321;BME280;69633;47.066;15.450;2024-03-08T09:32:11;97877.97;;;7.05;68.55
80321;BME280;69633;47.066;15.450;2024-03-08T09:34:37;97869.06;;;7.37;67.99
80321;BME280;69633;47.066;15.450;2024-03-08T09:37:04;97876.91;;;7.42;67.95
80321;BME280;69633;47.066;15.450;2024-03-08T09:39:30;97883.72;;;7.07;67.98
80321;BME280;69633;47.066;15.450;2024-03-08T09:41:55;97872.94;;;6.81;69.13
80321;BME280;69633;47.066;15.450;2024-03-08T09:44:21;97879.06;;;6.90;69.65
80321;BME280;69633;47.066;15.450;2024-03-08T09:46:46;97873.50;;;6.92;70.17
80321;BME280;69633;47.066;15.450;2024-03-08T09:49:13;97876.22;;;7.00;69.72
80321;BME280;69633;47.066;15.450;2024-03-08T09:51:41;97867.84;;;7.20;67.71
80321;BME280;69633;47.066;15.450;2024-03-08T09:54:08;97868.72;;;7.29;67.05
80321;BME280;69633;47.066;15.450;2024-03-08T09:56:35;97870.91;;;7.50;65.76
80321;BME280;69633;47.066;15.450;2024-03-08T09:59:01;97868.84;;;7.69;65.20
80321;BME280;69633;47.066;15.450;2024-03-08T10:01:45;97865.31;;;8.04;64.47
80321;BME280;69633;47.066;15.450;2024-03-08T10:04:11;97872.56;;;8.21;64.27
80321;BME280;69633;47.066;15.450;2024-03-08T10:06:39;97866.25;;;8.31;64.19
80321;BME280;69633;47.066;15.450;2024-03-08T10:09:05;97871.94;;;8.55;63.59
80321;BME280;69633;47.066;15.450;2024-03-08T10:11:33;97865.34;;;8.44;62.62
80321;BME280;69633;47.066;15.450;2024-03-08T10:14:00;97863.44;;;8.75;60.11
80321;BME280;69633;47.066;15.450;2024-03-08T10:16:27;97866.63;;;8.55;60.34
80321;BME280;69633;47.066;15.450;2024-03-08T10:18:53;97866.28;;;8.39;60.00
80321;BME280;69633;47.066;15.450;2024-03-08T10:21:19;97866.13;;;8.44;59.70
80321;BME280;69633;47.066;15.450;2024-03-08T10:23:46;97874.16;;;8.70;60.29
80321;BME280;69633;47.066;15.450;2024-03-08T10:26:16;97873.03;;;9.36;57.86
80321;BME280;69633;47.066;15.450;2024-03-08T10:28:49;97865.06;;;9.36;56.87
80321;BME280;69633;47.066;15.450;2024-03-08T10:31:15;97865.69;;;9.25;56.69
80321;BME280;69633;47.066;15.450;2024-03-08T10:33:41;97860.66;;;8.97;54.78
80321;BME280;69633;47.066;15.450;2024-03-08T10:36:11;97867.69;;;8.85;54.05
80321;BME280;69633;47.066;15.450;2024-03-08T10:38:40;97859.44;;;9.03;54.72
80321;BME280;69633;47.066;15.450;2024-03-08T10:41:08;97864.59;;;9.26;53.02
80321;BME280;69633;47.066;15.450;2024-03-08T10:46:54;97864.28;;;9.36;51.61
80321;BME280;69633;47.066;15.450;2024-03-08T10:49:30;97867.69;;;8.85;53.24
80321;BME280;69633;47.066;15.450;2024-03-08T10:51:58;97856.91;;;8.81;54.85
80321;BME280;69633;47.066;15.450;2024-03-08T10:54:26;97861.47;;;9.15;54.91
80321;BME280;69633;47.066;15.450;2024-03-08T10:56:53;97851.81;;;9.36;52.97
80321;BME280;69633;47.066;15.450;2024-03-08T10:59:22;97855.72;;;9.56;53.60
80321;BME280;69633;47.066;15.450;2024-03-08T11:01:53;97858.50;;;9.42;54.20
80321;BME280;69633;47.066;15.450;2024-03-08T11:04:19;97854.75;;;9.00;54.87
80321;BME280;69633;47.066;15.450;2024-03-08T11:06:50;97857.16;;;8.54;56.21
80321;BME280;69633;47.066;15.450;2024-03-08T11:09:36;97840.25;;;8.72;56.01
80321;BME280;69633;47.066;15.450;2024-03-08T11:12:26;97839.91;;;8.65;56.49
80321;BME280;69633;47.066;15.450;2024-03-08T11:15:16;97834.31;;;8.75;54.95
80321;BME280;69633;47.066;15.450;2024-03-08T11:17:57;97829.22;;;8.87;55.45
80321;BME280;69633;47.066;15.450;2024-03-08T11:20:23;97823.47;;;9.02;55.30
80321;BME280;69633;47.066;15.450;2024-03-08T11:25:53;97828.13;;;9.40;52.64
80321;BME280;69633;47.066;15.450;2024-03-08T11:28:25;97811.91;;;9.50;51.47
80321;BME280;69633;47.066;15.450;2024-03-08T11:33:39;97814.09;;;8.96;52.40
80321;BME280;69633;47.066;15.450;2024-03-08T11:36:27;97819.41;;;8.96;53.11
80321;BME280;69633;47.066;15.450;2024-03-08T11:38:57;97814.28;;;9.17;52.86
80321;BME280;69633;47.066;15.450;2024-03-08T11:41:24;97803.69;;;9.08;52.47
80321;BME280;69633;47.066;15.450;2024-03-08T11:44:03;97808.34;;;9.37;51.84
80321;BME280;69633;47.066;15.450;2024-03-08T11:46:31;97794.13;;;9.59;51.29
80321;BME280;69633;47.066;15.450;2024-03-08T11:48:59;97792.41;;;9.63;51.36
80321;BME280;69633;47.066;15.450;2024-03-08T11:51:31;97783.69;;;9.45;51.62
80321;BME280;69633;47.066;15.450;2024-03-08T11:53:57;97789.16;;;9.49;51.25
80321;BME280;69633;47.066;15.450;2024-03-08T11:56:24;97781.44;;;9.82;51.54
80321;BME280;69633;47.066;15.450;2024-03-08T11:58:54;97767.81;;;10.00;50.80
80321;BME280;69633;47.066;15.450;2024-03-08T12:01:23;97775.44;;;10.40;48.73
80321;BME280;69633;47.066;15.450;2024-03-08T12:03:54;97771.13;;;9.89;50.50
80321;BME280;69633;47.066;15.450;2024-03-08T12:06:20;97767.78;;;9.62;51.06
80321;BME280;69633;47.066;15.450;2024-03-08T12:08:47;97768.22;;;9.73;50.89
80321;BME280;69633;47.066;15.450;2024-03-08T12:11:17;97771.28;;;9.37;51.66
80321;BME280;69633;47.066;15.450;2024-03-08T12:13:48;97762.53;;;9.92;51.63
80321;BME280;69633;47.066;15.450;2024-03-08T12:16:23;97757.97;;;10.39;49.97
80321;BME280;69633;47.066;15.450;2024-03-08T12:18:51;97756.97;;;10.93;48.61
80321;BME280;69633;47.066;15.450;2024-03-08T12:21:17;97753.00;;;10.99;47.96
80321;BME280;69633;47.066;15.450;2024-03-08T12:23:46;97759.13;;;10.79;48.36
80321;BME280;69633;47.066;15.450;2024-03-08T12:26:23;97755.53;;;10.54;48.73
80321;BME280;69633;47.066;15.450;2024-03-08T12:28:50;97754.06;;;10.15;49.72
80321;BME280;69633;47.066;15.450;2024-03-08T12:31:16;97750.91;;;10.13;50.15
80321;BME280;69633;47.066;15.450;2024-03-08T12:33:54;97748.44;;;10.08;50.69
80321;BME280;69633;47.066;15.450;2024-03-08T12:36:23;97738.13;;;10.07;50.24
80321;BME280;69633;47.066;15.450;2024-03-08T12:38:49;97744.03;;;10.12;51.30
80321;BME280;69633;47.066;15.450;2024-03-08T12:41:15;97735.25;;;10.29;50.60
80321;BME280;69633;47.066;15.450;2024-03-08T12:43:41;97734.47;;;10.29;50.18
80321;BME280;69633;47.066;15.450;2024-03-08T12:46:08;97736.41;;;10.20;50.31
80321;BME280;69633;47.066;15.450;2024-03-08T12:48:37;97731.28;;;10.35;50.68
80321;BME280;69633;47.066;15.450;2024-03-08T12:51:09;97727.09;;;10.55;51.42
80321;BME280;69633;47.066;15.450;2024-03-08T12:53:35;97726.97;;;11.26;48.48
80321;BME280;69633;47.066;15.450;2024-03-08T12:56:00;97725.59;;;11.73;47.50
80321;BME280;69633;47.066;15.450;2024-03-08T12:58:27;97721.09;;;11.65;47.34
80321;BME280;69633;47.066;15.450;2024-03-08T13:00:53;97726.63;;;11.15;48.76
80321;BME280;69633;47.066;15.450;2024-03-08T13:03:18;97720.63;;;10.85;49.25
80321;BME280;69633;47.066;15.450;2024-03-08T13:05:44;97716.75;;;10.62;50.13
80321;BME280;69633;47.066;15.450;2024-03-08T13:08:09;97728.50;;;10.32;51.18
80321;BME280;69633;47.066;15.450;2024-03-08T13:10:39;97723.03;;;10.37;50.95
80321;BME280;69633;47.066;15.450;2024-03-08T13:13:05;97714.69;;;10.47;51.09